Airfield :
LOGIN :

Register | Disclaimer

   EN    FR    IT 

 










Legend :    VFR   Marginal VFR   IFR   Intensive IFR   Very Intensive IFR
Visi :
Ceiling :
>= 8 km
>= 3000ft
5 to 8 km
1000 to 3000 ft
1500m to 5 km
500 to 1000 ft
800 to 1500m
200 to 500 ft
< 800m
< 200 ft
Symbols :   Thunderstorms  Fog  Heavy snow  Heavy precipitations  Wind > 20 kt
SIGMETs :     Misc.  Thunderstorms  Icing  Turbulence  Mountain Waves  Volcanic Ashes






- Airport Elevation : 1071 ft
- IATA code : LWO


UKLL - L'viv

CURRENT METAR :
  • 251800Z 32003MPS CAVOK M01/M05 Q1020 R31/CLRD// NOSIG

EXPIRED METARs :
  • 251730Z 31003MPS CAVOK M01/M05 Q1020 R31/D NOSIG
  • 251700Z 30002MPS 270V330 9000 NSC M01/M04 Q1020 R31/CLRD// NOSIG
  • 251630Z VRB01MPS CAVOK M01/M04 Q1020 R31/D NOSIG
  • 251600Z 31003MPS CAVOK 00/M04 Q1020 R31/CLRD// NOSIG
  • 251530Z 32004MPS CAVOK 01/M04 Q1019 R31/D NOSIG

TAF TAF UKLL
Valid from the 25 at 18:00 until the 26 at 18:00 UTC


251703Z 2518/2618 VRB01MPS 5000 BR BKN020 TX04/2612Z TNM04/2604Z
TEMPO 2520/2606 0400 FZFG VV001
BECMG 2606/2608 17003MPS



MET'MAP, your aeronautical weather chart ! - Copyright ORBIFLY December 2007 - Disclaimer

ORBIFLY MET'MAP TEAM :

Programming & Development : Alexandra Zaïnal
Concept & original design : Baudouin d'Aumeries
Assistance for programming : Marc-Olivier Méhu
Technical & hardware support : Manuel Goepfert

Contact : metmap@orbifly.com




SOURCES & CREDITS :

   NOAA